Time;durP1;ratioP1;P1;durP2;ratioP2;P2;SDS_P1;SDS_P2;PMS_P1;PMS_P2;Temp;Humidity;BMP_temperature;BMP_pressure;BME280_temperature;BME280_humidity;BME280_pressure;Samples;Min_cycle;Max_cycle;Signal;HPM_P1;HPM_P2
2022/11/16 00:00:33;;;;;;;11.82;7.32;;;;;;;;;;5032544;28;20061;-65
2022/11/16 00:03:02;;;;;;;8.90;7.18;;;;;;;;;;5032367;28;20041;-65
2022/11/16 00:05:29;;;;;;;9.45;7.40;;;;;;;;;;5032853;28;20168;-65
2022/11/16 00:07:55;;;;;;;11.23;7.47;;;;;;;;;;5040699;28;20032;-65
2022/11/16 00:10:21;;;;;;;9.88;7.28;;;;;;;;;;5052271;28;20648;-65
2022/11/16 00:12:47;;;;;;;11.05;7.38;;;;;;;;;;5052684;28;20037;-65
2022/11/16 00:15:13;;;;;;;12.65;8.18;;;;;;;;;;5052359;28;20061;-65
2022/11/16 00:17:39;;;;;;;10.15;8.23;;;;;;;;;;5052156;28;20052;-65
2022/11/16 00:20:05;;;;;;;10.20;8.30;;;;;;;;;;5052082;28;20920;-65
2022/11/16 00:22:31;;;;;;;10.07;8.30;;;;;;;;;;5051373;28;20395;-65
2022/11/16 00:24:57;;;;;;;13.93;8.52;;;;;;;;;;5051726;28;20045;-65
2022/11/16 00:27:23;;;;;;;11.18;8.85;;;;;;;;;;5052189;28;20139;-65
2022/11/16 00:29:49;;;;;;;12.70;9.10;;;;;;;;;;5051956;28;20045;-65
2022/11/16 00:32:15;;;;;;;13.50;9.40;;;;;;;;;;5051561;28;20045;-65
2022/11/16 00:34:41;;;;;;;11.40;9.10;;;;;;;;;;5052074;28;20124;-65
2022/11/16 00:37:07;;;;;;;10.45;8.07;;;;;;;;;;5051908;28;20040;-65
2022/11/16 00:39:34;;;;;;;11.43;8.55;;;;;;;;;;5051404;28;20037;-65
2022/11/16 00:42:00;;;;;;;12.73;9.75;;;;;;;;;;5051836;28;20068;-65
2022/11/16 00:44:26;;;;;;;14.30;8.85;;;;;;;;;;5051742;28;20073;-65
2022/11/16 00:46:52;;;;;;;14.80;9.18;;;;;;;;;;5051714;28;20067;-65
2022/11/16 00:49:18;;;;;;;14.65;9.10;;;;;;;;;;5052162;28;20549;-65
2022/11/16 00:51:44;;;;;;;14.07;9.43;;;;;;;;;;5051543;28;20076;-65
2022/11/16 00:54:10;;;;;;;11.52;9.38;;;;;;;;;;5051670;28;20095;-65
2022/11/16 00:56:36;;;;;;;12.07;9.30;;;;;;;;;;5051596;28;20059;-65
2022/11/16 00:59:03;;;;;;;13.25;9.63;;;;;;;;;;5051862;28;20041;-65
2022/11/16 01:01:29;;;;;;;12.52;9.68;;;;;;;;;;5051306;28;20067;-65
2022/11/16 01:03:55;;;;;;;11.65;9.02;;;;;;;;;;5051484;28;20104;-65
2022/11/16 01:06:22;;;;;;;15.38;9.05;;;;;;;;;;5051669;28;20659;-65
2022/11/16 01:08:48;;;;;;;11.25;9.13;;;;;;;;;;5051313;28;20059;-65
2022/11/16 01:14:01;;;;;;;12.40;9.25;;;;;;;;;;5051586;28;20040;-65
2022/11/16 01:16:28;;;;;;;13.82;9.98;;;;;;;;;;5050952;28;20049;-65
2022/11/16 01:18:54;;;;;;;14.75;10.25;;;;;;;;;;5051597;28;20408;-65
2022/11/16 01:21:21;;;;;;;15.77;10.10;;;;;;;;;;5051502;28;20132;-65
2022/11/16 01:23:47;;;;;;;15.70;10.10;;;;;;;;;;5051178;28;20052;-65
2022/11/16 01:26:13;;;;;;;16.25;10.52;;;;;;;;;;5051422;28;20040;-65
2022/11/16 01:28:39;;;;;;;12.73;10.18;;;;;;;;;;5051564;28;20033;-65
2022/11/16 01:31:05;;;;;;;12.52;9.10;;;;;;;;;;5050530;28;20128;-65
2022/11/16 01:33:31;;;;;;;15.27;11.07;;;;;;;;;;5051083;28;20037;-65
2022/11/16 01:35:57;;;;;;;14.05;10.27;;;;;;;;;;5051450;28;20037;-65
2022/11/16 01:38:23;;;;;;;15.18;10.65;;;;;;;;;;5051064;28;20079;-65
2022/11/16 01:40:49;;;;;;;14.35;10.10;;;;;;;;;;5051246;28;20048;-65
2022/11/16 01:43:19;;;;;;;13.10;10.00;;;;;;;;;;5051287;28;20698;-65
2022/11/16 01:45:46;;;;;;;14.27;11.25;;;;;;;;;;5050731;28;20040;-65
2022/11/16 01:48:14;;;;;;;15.20;10.48;;;;;;;;;;5051251;28;20387;-65
2022/11/16 01:50:40;;;;;;;14.13;10.15;;;;;;;;;;5051251;28;20052;-65
2022/11/16 01:53:08;;;;;;;14.38;10.15;;;;;;;;;;5050884;28;20167;-65
2022/11/16 01:55:35;;;;;;;13.85;10.68;;;;;;;;;;5051264;28;20060;-65
2022/11/16 01:58:02;;;;;;;13.63;10.48;;;;;;;;;;5050985;28;20044;-65
2022/11/16 02:00:28;;;;;;;12.75;10.23;;;;;;;;;;5050685;28;20033;-65
2022/11/16 02:02:54;;;;;;;17.00;10.75;;;;;;;;;;5050985;28;20044;-65
2022/11/16 02:05:21;;;;;;;12.25;9.45;;;;;;;;;;5051125;28;20539;-65
2022/11/16 02:10:51;;;;;;;11.43;8.82;;;;;;;;;;5050933;28;20037;-65
2022/11/16 02:13:24;;;;;;;12.50;9.75;;;;;;;;;;5050720;28;20384;-65
2022/11/16 02:16:16;;;;;;;14.05;9.40;;;;;;;;;;5050293;28;20084;-65
2022/11/16 02:19:01;;;;;;;11.45;8.55;;;;;;;;;;5047773;28;20064;-65
2022/11/16 02:21:27;;;;;;;14.93;8.50;;;;;;;;;;5050940;28;20521;-65
2022/11/16 02:23:59;;;;;;;14.18;8.95;;;;;;;;;;5050531;28;20044;-65
2022/11/16 02:26:44;;;;;;;13.20;9.00;;;;;;;;;;5050617;28;20041;-65
2022/11/16 02:29:13;;;;;;;12.20;9.07;;;;;;;;;;5050916;28;20045;-65
2022/11/16 02:31:50;;;;;;;14.43;9.30;;;;;;;;;;5050036;28;20040;-65
2022/11/16 02:34:17;;;;;;;12.48;9.05;;;;;;;;;;5050826;28;20053;-65
2022/11/16 02:36:44;;;;;;;13.70;9.05;;;;;;;;;;5050992;28;20077;-65
2022/11/16 02:39:14;;;;;;;11.45;8.70;;;;;;;;;;5050277;28;20055;-65
2022/11/16 02:41:42;;;;;;;13.90;8.35;;;;;;;;;;5050899;28;20469;-65
2022/11/16 02:44:14;;;;;;;11.85;8.77;;;;;;;;;;5050595;28;20033;-65
2022/11/16 02:46:40;;;;;;;;;;;;;;;;;;5054971;28;20067;-65
2022/11/16 02:49:12;;;;;;;12.00;8.68;;;;;;;;;;5054481;28;19921;-65
2022/11/16 02:51:39;;;;;;;10.98;8.25;;;;;;;;;;5053585;28;20072;-65
2022/11/16 02:54:14;;;;;;;12.73;8.85;;;;;;;;;;5054281;28;20053;-65
2022/11/16 02:56:48;;;;;;;13.75;9.13;;;;;;;;;;5054132;28;20371;-65
2022/11/16 02:59:14;;;;;;;13.68;9.05;;;;;;;;;;5053564;28;20041;-65
2022/11/16 03:01:43;;;;;;;14.05;9.75;;;;;;;;;;5054076;28;20033;-65
2022/11/16 03:04:15;;;;;;;14.20;9.80;;;;;;;;;;5053721;28;20039;-65
2022/11/16 03:06:42;;;;;;;14.85;9.60;;;;;;;;;;5053635;28;20065;-65
2022/11/16 03:09:11;;;;;;;16.92;10.60;;;;;;;;;;5053960;28;20037;-65
2022/11/16 03:11:59;;;;;;;15.95;10.60;;;;;;;;;;5053646;28;20617;-65
2022/11/16 03:14:45;;;;;;;13.70;9.68;;;;;;;;;;5053321;28;20041;-65
2022/11/16 03:17:15;;;;;;;22.02;11.25;;;;;;;;;;5053358;28;20132;-65
2022/11/16 03:19:43;;;;;;;16.83;10.73;;;;;;;;;;5052099;28;20049;-65
2022/11/16 03:22:19;;;;;;;19.33;11.40;;;;;;;;;;5053426;28;20041;-65
2022/11/16 03:24:45;;;;;;;19.00;14.30;;;;;;;;;;5053643;28;20094;-65
2022/11/16 03:27:20;;;;;;;29.27;17.05;;;;;;;;;;5053652;28;20037;-64
2022/11/16 03:29:50;;;;;;;26.80;16.67;;;;;;;;;;5053013;28;20584;-64
2022/11/16 03:32:33;;;;;;;30.30;19.50;;;;;;;;;;5053307;28;20116;-64
2022/11/16 03:35:01;;;;;;;41.53;23.40;;;;;;;;;;5053273;28;20041;-64
2022/11/16 03:37:28;;;;;;;46.40;27.73;;;;;;;;;;5053034;28;20092;-64
2022/11/16 03:39:55;;;;;;;47.10;30.38;;;;;;;;;;5053255;28;20091;-65
2022/11/16 03:42:22;;;;;;;53.42;33.67;;;;;;;;;;5053270;28;20380;-64
2022/11/16 03:44:49;;;;;;;66.00;38.83;;;;;;;;;;5052907;28;20095;-64
2022/11/16 03:47:15;;;;;;;66.55;37.35;;;;;;;;;;5053274;28;20442;-65
2022/11/16 03:49:47;;;;;;;52.97;30.42;;;;;;;;;;5053161;28;20057;-64
2022/11/16 03:52:13;;;;;;;;;;;;;;;;;;5053152;28;20047;-64
2022/11/16 03:54:39;;;;;;;36.97;23.48;;;;;;;;;;5053194;28;19917;-64
2022/11/16 03:57:05;;;;;;;31.58;21.10;;;;;;;;;;5052502;28;20052;-64
2022/11/16 03:59:31;;;;;;;27.08;19.10;;;;;;;;;;5052443;28;20493;-65
2022/11/16 04:01:57;;;;;;;22.00;15.93;;;;;;;;;;5052935;28;20119;-64
2022/11/16 04:28:12;;;;;;;20.83;11.68;;;;;;;;;;5052433;28;20431;-64
2022/11/16 04:29:21;;;;;;;16.10;11.02;;;;;;;;;;5051701;28;20052;-64
2022/11/16 04:40:03;;;;;;;16.27;11.20;;;;;;;;;;5052023;28;20044;-64
2022/11/16 04:42:29;;;;;;;17.20;11.40;;;;;;;;;;5050642;28;20040;-64
2022/11/16 04:47:39;;;;;;;19.38;13.00;;;;;;;;;;5051819;28;20040;-64
2022/11/16 04:50:05;;;;;;;17.70;11.80;;;;;;;;;;5051681;28;20053;-64
2022/11/16 04:52:31;;;;;;;13.85;10.68;;;;;;;;;;5051999;28;20428;-64
2022/11/16 04:54:57;;;;;;;16.05;11.80;;;;;;;;;;5051726;28;20175;-64
2022/11/16 04:57:23;;;;;;;15.52;11.43;;;;;;;;;;5051499;28;20045;-64
2022/11/16 04:59:49;;;;;;;15.05;11.73;;;;;;;;;;5051659;28;20079;-64
2022/11/16 05:02:16;;;;;;;15.35;11.45;;;;;;;;;;5051671;28;20480;-64
2022/11/16 05:04:42;;;;;;;15.80;11.57;;;;;;;;;;5051857;28;20033;-64
2022/11/16 05:07:10;;;;;;;20.63;12.77;;;;;;;;;;5050925;28;20041;-64
2022/11/16 05:09:40;;;;;;;16.42;12.23;;;;;;;;;;5049881;28;20052;-64
2022/11/16 05:12:06;;;;;;;14.43;11.93;;;;;;;;;;5051667;28;20114;-64
2022/11/16 05:14:32;;;;;;;17.20;12.65;;;;;;;;;;5050996;28;20492;-64
2022/11/16 05:16:58;;;;;;;16.13;11.48;;;;;;;;;;5051769;28;20053;-64
2022/11/16 05:22:09;;;;;;;17.83;11.90;;;;;;;;;;5051613;28;20041;-64
2022/11/16 05:24:35;;;;;;;16.95;12.40;;;;;;;;;;5051200;28;20041;-64
2022/11/16 05:27:05;;;;;;;16.20;12.30;;;;;;;;;;5051216;28;20041;-64
2022/11/16 05:29:31;;;;;;;16.88;11.65;;;;;;;;;;5051446;28;20052;-64
2022/11/16 05:31:58;;;;;;;17.85;12.25;;;;;;;;;;5051157;28;20045;-64
2022/11/16 05:34:24;;;;;;;19.90;13.45;;;;;;;;;;5051213;28;20041;-64
2022/11/16 05:36:50;;;;;;;19.23;13.13;;;;;;;;;;5051187;28;20076;-64
2022/11/16 05:39:16;;;;;;;27.63;14.35;;;;;;;;;;5050885;28;20045;-64
2022/11/16 05:41:42;;;;;;;18.05;12.32;;;;;;;;;;5051294;28;20787;-64
2022/11/16 05:44:08;;;;;;;16.02;12.57;;;;;;;;;;5051080;28;20056;-64
2022/11/16 05:46:34;;;;;;;17.13;12.23;;;;;;;;;;5051404;28;20033;-64
2022/11/16 05:49:00;;;;;;;20.13;13.52;;;;;;;;;;5051432;28;20387;-64
2022/11/16 05:51:26;;;;;;;22.55;13.77;;;;;;;;;;5050672;28;20041;-64
2022/11/16 05:53:52;;;;;;;20.60;13.52;;;;;;;;;;5051317;28;20587;-64
2022/11/16 05:56:18;;;;;;;19.70;13.63;;;;;;;;;;5051268;28;20037;-64
2022/11/16 05:58:45;;;;;;;26.40;14.60;;;;;;;;;;5050350;28;20083;-64
2022/11/16 06:01:11;;;;;;;17.83;12.90;;;;;;;;;;5051054;28;20064;-64
2022/11/16 06:03:37;;;;;;;18.42;13.20;;;;;;;;;;5049300;28;20360;-64
2022/11/16 06:06:04;;;;;;;18.25;13.02;;;;;;;;;;5050062;28;20426;-64
2022/11/16 06:08:30;;;;;;;20.70;13.88;;;;;;;;;;5050389;28;20094;-64
2022/11/16 06:10:56;;;;;;;20.17;13.55;;;;;;;;;;5050152;28;20436;-64
2022/11/16 06:13:22;;;;;;;20.27;13.68;;;;;;;;;;5050429;28;20529;-64
2022/11/16 06:15:48;;;;;;;19.80;14.02;;;;;;;;;;5050415;28;20053;-64
2022/11/16 06:18:14;;;;;;;19.05;13.13;;;;;;;;;;5050816;28;20345;-64
2022/11/16 06:20:40;;;;;;;21.27;14.82;;;;;;;;;;5053689;28;20056;-64
2022/11/16 06:23:06;;;;;;;18.40;13.35;;;;;;;;;;5054545;28;20746;-64
2022/11/16 06:25:32;;;;;;;19.80;12.85;;;;;;;;;;5054519;28;20037;-64
2022/11/16 06:27:59;;;;;;;18.90;11.75;;;;;;;;;;5053854;28;20356;-64
2022/11/16 06:30:25;;;;;;;17.05;12.77;;;;;;;;;;5054064;28;20503;-64
2022/11/16 06:32:51;;;;;;;21.80;13.25;;;;;;;;;;5054195;28;20032;-64
2022/11/16 06:35:17;;;;;;;17.40;12.30;;;;;;;;;;5053843;28;20395;-64
2022/11/16 06:37:43;;;;;;;18.33;11.27;;;;;;;;;;5054167;28;20040;-64
2022/11/16 06:40:09;;;;;;;15.73;11.98;;;;;;;;;;5052745;28;20045;-64
2022/11/16 06:42:35;;;;;;;15.90;11.60;;;;;;;;;;5053515;28;20041;-64
2022/11/16 06:45:01;;;;;;;14.60;10.52;;;;;;;;;;5054203;28;20033;-64
2022/11/16 06:47:28;;;;;;;15.85;11.95;;;;;;;;;;5054066;28;20041;-64
2022/11/16 06:49:54;;;;;;;17.65;11.88;;;;;;;;;;5053724;28;20489;-64
2022/11/16 06:52:20;;;;;;;15.55;11.88;;;;;;;;;;5053964;28;20053;-64
2022/11/16 06:54:46;;;;;;;16.27;11.30;;;;;;;;;;5053590;28;20056;-64
2022/11/16 06:57:12;;;;;;;14.45;10.75;;;;;;;;;;5053574;28;20067;-64
2022/11/16 06:59:38;;;;;;;17.42;12.00;;;;;;;;;;5053584;28;20483;-64
2022/11/16 07:02:04;;;;;;;16.35;11.13;;;;;;;;;;5053950;28;20041;-64
2022/11/16 07:04:31;;;;;;;14.02;11.20;;;;;;;;;;5051549;28;20041;-64
2022/11/16 07:06:57;;;;;;;15.10;11.63;;;;;;;;;;5053359;28;20037;-64
2022/11/16 07:09:23;;;;;;;15.43;11.63;;;;;;;;;;5053520;28;20064;-64
2022/11/16 07:11:49;;;;;;;16.52;12.98;;;;;;;;;;5052696;28;20048;-64
2022/11/16 07:14:16;;;;;;;15.73;12.32;;;;;;;;;;5053654;28;20483;-64
2022/11/16 07:16:42;;;;;;;14.18;11.63;;;;;;;;;;5050732;28;20092;-64
2022/11/16 07:19:09;;;;;;;16.55;11.75;;;;;;;;;;5052301;28;20116;-64
2022/11/16 07:21:35;;;;;;;18.77;13.45;;;;;;;;;;5052249;28;20116;-64
2022/11/16 07:24:01;;;;;;;19.70;13.02;;;;;;;;;;5052664;28;20028;-64
2022/11/16 07:26:29;;;;;;;19.58;12.65;;;;;;;;;;5052372;28;20060;-64
2022/11/16 07:28:57;;;;;;;24.45;14.38;;;;;;;;;;5052559;28;20396;-64
2022/11/16 07:31:23;;;;;;;21.48;13.80;;;;;;;;;;5044611;28;20043;-64
2022/11/16 07:33:50;;;;;;;24.40;14.20;;;;;;;;;;5049421;28;20036;-65
2022/11/16 07:36:17;;;;;;;17.63;13.20;;;;;;;;;;5041669;28;20037;-65
2022/11/16 07:38:43;;;;;;;23.60;14.00;;;;;;;;;;5048363;28;20045;-65
2022/11/16 07:41:10;;;;;;;18.85;13.75;;;;;;;;;;5048532;28;20124;-65
2022/11/16 07:43:36;;;;;;;20.75;13.90;;;;;;;;;;5046107;28;20120;-65
2022/11/16 07:46:07;;;;;;;33.65;16.00;;;;;;;;;;5045429;28;20039;-65
2022/11/16 07:48:34;;;;;;;17.75;13.40;;;;;;;;;;5051006;28;20051;-65
2022/11/16 07:51:04;;;;;;;20.40;14.20;;;;;;;;;;5051979;28;20044;-64
2022/11/16 07:53:30;;;;;;;19.58;14.13;;;;;;;;;;5050297;28;20037;-64
2022/11/16 07:55:57;;;;;;;20.50;14.43;;;;;;;;;;5040645;28;20048;-64
2022/11/16 07:58:23;;;;;;;17.98;14.38;;;;;;;;;;5044950;28;20098;-64
2022/11/16 08:00:49;;;;;;;22.33;14.10;;;;;;;;;;5050941;28;20045;-64
2022/11/16 08:03:15;;;;;;;16.48;12.65;;;;;;;;;;5049585;28;20033;-64
2022/11/16 08:05:44;;;;;;;21.10;13.85;;;;;;;;;;5049168;28;20116;-64
2022/11/16 08:08:11;;;;;;;18.88;12.95;;;;;;;;;;5048644;28;21744;-64
2022/11/16 08:10:37;;;;;;;18.10;12.90;;;;;;;;;;5047975;28;20135;-64
2022/11/16 08:13:03;;;;;;;17.40;12.35;;;;;;;;;;5048871;28;20069;-64
2022/11/16 08:15:29;;;;;;;20.60;12.55;;;;;;;;;;5049772;28;20060;-64
2022/11/16 08:17:58;;;;;;;17.83;11.95;;;;;;;;;;5050428;28;20468;-64
2022/11/16 08:20:24;;;;;;;18.55;11.90;;;;;;;;;;5049768;28;20128;-64
2022/11/16 08:22:50;;;;;;;15.40;11.95;;;;;;;;;;5049118;28;20044;-64
2022/11/16 08:25:16;;;;;;;17.65;11.98;;;;;;;;;;5047484;28;20087;-63
2022/11/16 08:27:42;;;;;;;14.68;10.77;;;;;;;;;;5050555;28;20041;-64
2022/11/16 08:30:09;;;;;;;17.27;11.27;;;;;;;;;;5047226;28;20081;-64
2022/11/16 08:32:35;;;;;;;16.63;11.40;;;;;;;;;;5048458;28;20681;-64
2022/11/16 08:35:01;;;;;;;15.10;10.82;;;;;;;;;;5048178;28;20037;-64
2022/11/16 08:37:27;;;;;;;15.23;9.57;;;;;;;;;;5049284;28;20037;-64
2022/11/16 08:39:54;;;;;;;13.98;10.02;;;;;;;;;;5048649;28;20583;-64
2022/11/16 08:42:21;;;;;;;16.08;10.63;;;;;;;;;;5047952;28;20435;-64
2022/11/16 08:44:47;;;;;;;16.35;10.98;;;;;;;;;;5047158;28;20064;-64
2022/11/16 08:47:13;;;;;;;12.60;9.48;;;;;;;;;;5047518;28;20662;-64
2022/11/16 08:49:39;;;;;;;13.52;10.23;;;;;;;;;;5050307;28;20055;-64
2022/11/16 08:52:05;;;;;;;12.65;9.90;;;;;;;;;;5048030;28;20860;-64
2022/11/16 08:54:31;;;;;;;12.40;9.80;;;;;;;;;;5048875;28;20514;-64
2022/11/16 08:56:57;;;;;;;11.73;9.20;;;;;;;;;;5048053;28;20081;-64
2022/11/16 08:59:23;;;;;;;11.90;9.57;;;;;;;;;;5049213;28;20132;-64
2022/11/16 09:01:49;;;;;;;12.18;9.63;;;;;;;;;;5048812;28;20392;-64
2022/11/16 09:04:17;;;;;;;13.57;9.43;;;;;;;;;;5048238;28;20132;-64
2022/11/16 09:06:44;;;;;;;11.73;8.88;;;;;;;;;;5048009;28;20045;-64
2022/11/16 09:09:10;;;;;;;11.25;8.88;;;;;;;;;;5048446;28;20052;-64
2022/11/16 09:11:36;;;;;;;14.05;9.77;;;;;;;;;;5048951;28;20060;-64
2022/11/16 09:14:02;;;;;;;15.52;9.80;;;;;;;;;;5047384;28;20033;-64
2022/11/16 09:16:28;;;;;;;12.95;9.10;;;;;;;;;;5046301;28;20483;-64
2022/11/16 09:18:55;;;;;;;15.00;10.63;;;;;;;;;;5049002;28;20120;-64
2022/11/16 09:21:25;;;;;;;16.13;11.13;;;;;;;;;;5049391;28;20041;-64
2022/11/16 09:23:52;;;;;;;15.20;11.90;;;;;;;;;;5042322;28;20055;-64
2022/11/16 09:26:21;;;;;;;16.05;11.60;;;;;;;;;;5048926;28;20462;-64
2022/11/16 09:28:54;;;;;;;15.40;11.80;;;;;;;;;;5045630;28;20079;-64
2022/11/16 09:31:20;;;;;;;;;;;;;;;;;;5046745;28;20380;-64
2022/11/16 09:33:46;;;;;;;17.98;12.77;;;;;;;;;;5048635;28;20003;-64
2022/11/16 09:36:14;;;;;;;20.85;12.98;;;;;;;;;;5049240;28;20757;-64
2022/11/16 09:38:41;;;;;;;19.35;13.25;;;;;;;;;;5046212;28;20052;-64
2022/11/16 09:41:27;;;;;;;20.52;13.63;;;;;;;;;;5047870;28;20048;-64
2022/11/16 09:44:02;;;;;;;23.33;14.48;;;;;;;;;;5030539;28;20053;-64
2022/11/16 09:47:00;;;;;;;21.23;13.65;;;;;;;;;;5047797;28;20258;-64
2022/11/16 09:49:38;;;;;;;26.92;16.80;;;;;;;;;;5005976;28;20527;-64
2022/11/16 09:52:16;;;;;;;24.98;15.13;;;;;;;;;;5048500;28;20065;-64
2022/11/16 09:54:42;;;;;;;24.15;13.93;;;;;;;;;;5050176;28;20068;-64
2022/11/16 09:57:11;;;;;;;24.00;15.55;;;;;;;;;;5051495;28;20040;-64
2022/11/16 09:59:40;;;;;;;21.63;13.55;;;;;;;;;;5049544;28;20049;-64
2022/11/16 10:02:23;;;;;;;20.63;13.15;;;;;;;;;;5052389;28;20138;-64
2022/11/16 10:04:52;;;;;;;18.85;12.80;;;;;;;;;;5052174;28;20525;-64
2022/11/16 10:07:34;;;;;;;21.17;14.15;;;;;;;;;;5045082;28;20063;-64
2022/11/16 10:10:00;;;;;;;22.02;12.60;;;;;;;;;;5048103;28;20039;-64
2022/11/16 10:12:35;;;;;;;20.08;12.32;;;;;;;;;;5051881;28;20107;-64
2022/11/16 10:15:16;;;;;;;20.70;13.48;;;;;;;;;;5050227;28;20064;-64
2022/11/16 10:18:01;;;;;;;24.77;13.55;;;;;;;;;;5053377;28;20131;-64
2022/11/16 10:20:37;;;;;;;21.60;13.05;;;;;;;;;;5052255;28;20048;-64
2022/11/16 10:23:03;;;;;;;18.98;12.35;;;;;;;;;;5051968;28;20041;-64
2022/11/16 10:25:32;;;;;;;24.52;13.77;;;;;;;;;;5051656;28;20037;-64
2022/11/16 10:28:17;;;;;;;16.55;12.25;;;;;;;;;;5050884;28;20087;-64
2022/11/16 10:31:01;;;;;;;20.42;12.73;;;;;;;;;;5049120;28;20052;-64
2022/11/16 10:33:34;;;;;;;17.95;10.80;;;;;;;;;;5049301;28;20041;-64
2022/11/16 10:36:01;;;;;;;18.75;10.80;;;;;;;;;;5052215;28;20658;-64
2022/11/16 10:38:29;;;;;;;23.88;12.27;;;;;;;;;;5049461;28;20056;-64
2022/11/16 10:41:16;;;;;;;17.95;11.88;;;;;;;;;;5052027;28;20124;-64
2022/11/16 10:43:42;;;;;;;18.13;9.15;;;;;;;;;;5052337;28;20048;-64
2022/11/16 10:46:11;;;;;;;13.00;8.10;;;;;;;;;;5050001;28;20114;-64
2022/11/16 10:48:56;;;;;;;14.85;7.95;;;;;;;;;;5050080;28;20072;-64
2022/11/16 10:51:22;;;;;;;14.38;7.55;;;;;;;;;;5051399;28;20124;-64
2022/11/16 10:53:48;;;;;;;10.05;5.82;;;;;;;;;;5051427;28;20047;-64
2022/11/16 10:56:18;;;;;;;15.02;6.05;;;;;;;;;;5051239;28;20037;-64
2022/11/16 10:58:56;;;;;;;14.43;7.00;;;;;;;;;;5051589;28;20048;-64
2022/11/16 11:01:36;;;;;;;11.85;7.30;;;;;;;;;;5042437;28;20040;-64
2022/11/16 11:04:11;;;;;;;10.98;6.28;;;;;;;;;;5050617;28;20052;-64
2022/11/16 11:06:39;;;;;;;11.38;6.50;;;;;;;;;;5047952;28;20107;-64
2022/11/16 11:09:23;;;;;;;13.70;6.03;;;;;;;;;;5049613;28;20107;-64
2022/11/16 11:15:17;;;;;;;12.52;5.13;;;;;;;;;;5051442;28;20057;-64
2022/11/16 11:17:47;;;;;;;12.77;5.18;;;;;;;;;;5034894;28;20398;-64
2022/11/16 11:20:16;;;;;;;10.93;5.50;;;;;;;;;;5052372;28;20075;-65
2022/11/16 11:22:51;;;;;;;11.68;4.60;;;;;;;;;;5052409;28;20048;-64
2022/11/16 11:25:19;;;;;;;8.57;4.45;;;;;;;;;;5051216;28;20029;-64
2022/11/16 11:27:45;;;;;;;13.15;5.53;;;;;;;;;;5052666;28;20037;-64
2022/11/16 11:30:18;;;;;;;14.23;4.90;;;;;;;;;;5051621;28;20537;-65
2022/11/16 11:32:45;;;;;;;11.77;5.03;;;;;;;;;;5052409;28;20037;-65
2022/11/16 11:35:26;;;;;;;13.65;4.85;;;;;;;;;;5052991;28;20429;-64
2022/11/16 11:37:53;;;;;;;9.43;4.53;;;;;;;;;;5052206;28;20076;-64
2022/11/16 11:40:21;;;;;;;12.93;4.13;;;;;;;;;;5052009;28;20037;-64
2022/11/16 11:43:06;;;;;;;11.60;3.60;;;;;;;;;;5053035;28;20079;-64
2022/11/16 11:46:07;;;;;;;5.65;3.10;;;;;;;;;;5052161;28;20037;-64
2022/11/16 11:48:37;;;;;;;7.55;3.28;;;;;;;;;;4990301;28;20081;-64
2022/11/16 11:51:22;;;;;;;7.53;2.63;;;;;;;;;;5041756;28;20081;-64
2022/11/16 11:53:55;;;;;;;7.35;3.03;;;;;;;;;;5052242;28;20045;-65
2022/11/16 11:56:21;;;;;;;9.38;3.50;;;;;;;;;;5052210;28;20040;-64
2022/11/16 11:58:48;;;;;;;12.27;3.30;;;;;;;;;;5052184;28;20037;-64
2022/11/16 12:01:23;;;;;;;13.10;3.53;;;;;;;;;;5050970;28;20076;-64
2022/11/16 12:04:11;;;;;;;12.82;2.92;;;;;;;;;;5052268;28;20037;-64
2022/11/16 12:06:56;;;;;;;10.25;3.15;;;;;;;;;;5051622;28;20162;-64
2022/11/16 12:09:29;;;;;;;9.70;3.35;;;;;;;;;;5052222;28;20048;-65
2022/11/16 12:11:58;;;;;;;9.43;3.47;;;;;;;;;;5051966;28;20037;-65
2022/11/16 12:14:48;;;;;;;8.65;3.13;;;;;;;;;;5051749;28;20093;-64
2022/11/16 12:17:26;;;;;;;8.25;3.08;;;;;;;;;;5023206;28;20048;-65
2022/11/16 12:20:05;;;;;;;10.13;2.80;;;;;;;;;;5051835;28;20446;-65
2022/11/16 12:22:31;;;;;;;6.63;2.83;;;;;;;;;;5051641;28;20029;-64
2022/11/16 12:25:25;;;;;;;6.18;2.30;;;;;;;;;;5052152;28;20103;-65
2022/11/16 12:27:56;;;;;;;8.73;2.35;;;;;;;;;;5047898;28;20065;-65
2022/11/16 12:30:23;;;;;;;10.32;2.83;;;;;;;;;;5050830;28;20041;-65
2022/11/16 12:32:56;;;;;;;9.13;3.40;;;;;;;;;;5051436;28;20387;-65
2022/11/16 12:35:28;;;;;;;9.30;3.05;;;;;;;;;;5051953;28;20041;-65
2022/11/16 12:38:01;;;;;;;9.43;2.42;;;;;;;;;;5050906;28;20124;-65
2022/11/16 12:40:27;;;;;;;9.55;2.53;;;;;;;;;;5031907;28;20061;-64
2022/11/16 12:42:53;;;;;;;10.75;2.53;;;;;;;;;;5052020;28;20037;-64
2022/11/16 12:45:29;;;;;;;10.15;2.90;;;;;;;;;;5051410;28;20352;-65
2022/11/16 12:48:07;;;;;;;11.63;2.88;;;;;;;;;;5050320;28;20116;-65
2022/11/16 12:50:33;;;;;;;7.93;3.10;;;;;;;;;;5051409;28;20044;-64
2022/11/16 12:53:03;;;;;;;8.75;2.65;;;;;;;;;;5051267;28;20040;-65
2022/11/16 12:55:37;;;;;;;13.02;2.83;;;;;;;;;;5051166;28;20095;-65
2022/11/16 12:58:03;;;;;;;13.23;2.65;;;;;;;;;;5050844;28;20415;-65
2022/11/16 13:00:33;;;;;;;10.00;2.60;;;;;;;;;;5050880;28;20051;-65
2022/11/16 13:02:59;;;;;;;11.35;3.38;;;;;;;;;;5051564;28;20029;-65
2022/11/16 13:05:34;;;;;;;9.65;3.22;;;;;;;;;;5051412;28;20037;-65
2022/11/16 13:08:03;;;;;;;11.00;2.50;;;;;;;;;;5050378;28;20090;-65
2022/11/16 13:10:31;;;;;;;10.82;2.47;;;;;;;;;;5050794;28;20052;-64
2022/11/16 13:13:00;;;;;;;7.50;2.08;;;;;;;;;;5049994;28;20047;-65
2022/11/16 13:15:32;;;;;;;16.48;4.10;;;;;;;;;;5050836;28;20053;-65
2022/11/16 13:17:59;;;;;;;9.32;2.38;;;;;;;;;;5051083;28;20052;-64
2022/11/16 13:20:32;;;;;;;7.53;2.97;;;;;;;;;;5050935;28;20086;-64
2022/11/16 13:22:57;;;;;;;;;;;;;;;;;;5050915;28;20037;-64
2022/11/16 13:25:31;;;;;;;10.23;2.10;;;;;;;;;;5050979;28;19966;-65
2022/11/16 13:28:09;;;;;;;11.13;2.60;;;;;;;;;;5050315;28;20040;-65
2022/11/16 13:30:47;;;;;;;9.75;1.95;;;;;;;;;;5050724;28;20446;-65
2022/11/16 13:33:29;;;;;;;11.52;3.42;;;;;;;;;;5050828;28;20487;-65
2022/11/16 13:35:55;;;;;;;11.70;2.17;;;;;;;;;;5050626;28;20045;-64
2022/11/16 13:38:40;;;;;;;15.32;3.28;;;;;;;;;;5049334;28;20072;-64
2022/11/16 13:41:24;;;;;;;9.60;1.75;;;;;;;;;;5050796;28;20120;-65
2022/11/16 13:43:51;;;;;;;9.13;1.90;;;;;;;;;;5050737;28;20055;-64
2022/11/16 13:46:17;;;;;;;9.25;2.10;;;;;;;;;;5050389;28;20089;-64
2022/11/16 13:48:44;;;;;;;12.63;2.45;;;;;;;;;;5050379;28;20853;-65
2022/11/16 13:51:18;;;;;;;8.55;2.03;;;;;;;;;;5050101;28;20668;-64
2022/11/16 13:53:48;;;;;;;9.85;2.17;;;;;;;;;;5050620;28;20037;-64
2022/11/16 13:56:15;;;;;;;9.82;2.00;;;;;;;;;;5050834;28;20044;-65
2022/11/16 13:58:46;;;;;;;6.22;1.98;;;;;;;;;;5049633;28;20144;-64
2022/11/16 14:01:13;;;;;;;10.85;2.08;;;;;;;;;;5050297;28;20499;-64
2022/11/16 14:03:46;;;;;;;9.57;2.13;;;;;;;;;;5050575;28;20430;-64
2022/11/16 14:06:12;;;;;;;7.95;1.33;;;;;;;;;;5050365;28;20043;-64
2022/11/16 14:08:38;;;;;;;8.30;2.15;;;;;;;;;;5050419;28;20116;-64
2022/11/16 14:11:24;;;;;;;12.73;2.15;;;;;;;;;;5050476;28;20360;-64
2022/11/16 14:13:50;;;;;;;12.40;2.08;;;;;;;;;;5049929;28;20095;-65
2022/11/16 14:16:20;;;;;;;11.18;2.10;;;;;;;;;;5050328;28;20128;-64
2022/11/16 14:18:54;;;;;;;7.55;1.77;;;;;;;;;;5050068;28;20045;-64
2022/11/16 14:21:29;;;;;;;9.65;2.13;;;;;;;;;;5049656;28;20045;-64
2022/11/16 14:24:07;;;;;;;10.20;2.00;;;;;;;;;;5050444;28;20044;-64
2022/11/16 14:26:42;;;;;;;11.27;2.42;;;;;;;;;;5050137;28;20094;-64
2022/11/16 14:29:19;;;;;;;13.18;2.20;;;;;;;;;;5049753;28;20044;-65
2022/11/16 14:31:45;;;;;;;15.65;2.20;;;;;;;;;;5049966;28;20033;-64
2022/11/16 14:34:15;;;;;;;9.30;1.90;;;;;;;;;;5048866;28;20380;-64
2022/11/16 14:36:42;;;;;;;11.80;2.15;;;;;;;;;;5050281;28;20033;-64
2022/11/16 14:39:16;;;;;;;7.50;1.73;;;;;;;;;;5049527;28;20041;-64
2022/11/16 14:41:44;;;;;;;7.60;1.73;;;;;;;;;;5054017;28;20036;-64
2022/11/16 14:44:10;;;;;;;12.35;2.25;;;;;;;;;;5053158;28;20045;-64
2022/11/16 14:46:37;;;;;;;11.60;1.98;;;;;;;;;;5053791;28;20041;-64
2022/11/16 14:49:03;;;;;;;8.50;1.98;;;;;;;;;;5053745;28;20040;-64
2022/11/16 14:51:32;;;;;;;10.65;2.03;;;;;;;;;;5053473;28;20132;-64
2022/11/16 14:54:01;;;;;;;10.18;1.98;;;;;;;;;;5053807;28;20490;-64
2022/11/16 14:56:27;;;;;;;11.82;2.58;;;;;;;;;;5053866;28;20049;-64
2022/11/16 14:59:01;;;;;;;13.57;2.30;;;;;;;;;;5052603;28;20040;-64
2022/11/16 15:01:28;;;;;;;12.27;1.95;;;;;;;;;;5053127;28;20049;-64
2022/11/16 15:03:54;;;;;;;8.25;1.92;;;;;;;;;;5053718;28;20037;-64
2022/11/16 15:06:21;;;;;;;8.95;2.35;;;;;;;;;;5053284;28;20045;-64
2022/11/16 15:08:53;;;;;;;9.00;1.85;;;;;;;;;;5053185;28;20052;-64
2022/11/16 15:11:25;;;;;;;14.52;2.00;;;;;;;;;;5053055;28;20525;-64
2022/11/16 15:13:53;;;;;;;12.57;2.35;;;;;;;;;;5052711;28;20049;-64
2022/11/16 15:16:19;;;;;;;10.35;2.50;;;;;;;;;;5053047;28;20089;-64
2022/11/16 15:18:56;;;;;;;12.07;2.50;;;;;;;;;;5052838;28;20045;-64
2022/11/16 15:21:23;;;;;;;8.48;2.08;;;;;;;;;;5052292;28;20045;-64
2022/11/16 15:23:49;;;;;;;7.63;2.15;;;;;;;;;;5053192;28;20037;-64